Terminal Aerodrome Forecast
Issued by NWS Shreveport, LA

Current Version | Previous Version | Text Only | Print | Product List | Glossary On
Versions: 1 2 3 4 5 6 7 8 9 10 11 12 13 14
000
FTUS44 KSHV 221100 RRA
TAFSHV
TAF
KSHV 221141Z 2212/2312 04010KT P6SM SCT045 BKN110
      TEMPO 2212/2214 BKN045
     FM221500 05011KT P6SM FEW045 SCT250
     FM221700 04010KT P6SM SKC
     FM230100 06004KT P6SM SKC=

USA.gov is the U.S. government's official web portal to all federal, state and local government web resources and services.